| time (UTC) | temp F | wind direction | speed knots | gust knots | rain 1hr in | rain 24hr in | rain mn in | humidity % | barometer mb |
| 20260509043438 | 44 | 216 | 1.7 | 2.6 | 0.00 | 0.00 | 0.00 | 84 | 1012.5 |
| 20260509042933 | 44 | 214 | 0.0 | 0.9 | 0.00 | 0.00 | 0.00 | 85 | 1012.5 |
| 20260509042431 | 44 | 203 | 2.6 | 2.6 | 0.00 | 0.00 | 0.00 | 85 | 1012.5 |
| 20260509041927 | 44 | 201 | 2.6 | 2.6 | 0.00 | 0.00 | 0.00 | 84 | 1012.4 |
| 20260509041424 | 44 | 180 | 2.6 | 2.6 | 0.00 | 0.00 | 0.00 | 86 | 1012.6 |
| 20260509040922 | 44 | 178 | 2.6 | 2.6 | 0.00 | 0.00 | 0.00 | 85 | 1012.8 |
| 20260509040420 | 44 | 191 | 0.9 | 1.7 | 0.00 | 0.00 | 0.00 | 85 | 1012.7 |
| 20260509035916 | 44 | 168 | 0.0 | 0.0 | 0.00 | 0.09 | 0.09 | 85 | 1012.6 |
| 20260509035414 | 44 | 214 | 0.0 | 0.0 | 0.00 | 0.09 | 0.09 | 85 | 1012.6 |
| 20260509034910 | 44 | 214 | 0.0 | 0.0 | 0.00 | 0.09 | 0.09 | 83 | 1012.5 |
| 20260509034408 | 44 | 189 | 3.5 | 4.3 | 0.00 | 0.09 | 0.09 | 85 | 1012.3 |
| 20260509033905 | 45 | 176 | 1.7 | 1.7 | 0.00 | 0.09 | 0.09 | 84 | 1012.2 |
| 20260509033402 | 45 | 227 | 2.6 | 2.6 | 0.00 | 0.09 | 0.09 | 84 | 1012.6 |
| 20260509032858 | 45 | 200 | 1.7 | 1.7 | 0.00 | 0.09 | 0.09 | 84 | 1012.5 |
| 20260509032355 | 45 | 212 | 0.9 | 1.7 | 0.00 | 0.09 | 0.09 | 84 | 1012.7 |
| 20260509031853 | 45 | 184 | 2.6 | 2.6 | 0.00 | 0.09 | 0.09 | 85 | 1012.7 |
| 20260509031350 | 45 | 197 | 0.9 | 1.7 | 0.00 | 0.09 | 0.09 | 84 | 1012.6 |
| 20260509030848 | 45 | 225 | 0.0 | 0.0 | 0.00 | 0.09 | 0.09 | 85 | 1012.6 |
| 20260509030346 | 45 | 214 | 0.0 | 0.0 | 0.00 | 0.09 | 0.09 | 87 | 1012.4 |
| 20260509025842 | 46 | 182 | 0.0 | 0.0 | 0.00 | 0.09 | 0.09 | 85 | 1012.6 |
| 20260509025337 | 45 | 210 | 0.0 | 0.0 | 0.00 | 0.09 | 0.09 | 85 | 1012.7 |
| 20260509024833 | 45 | 212 | 0.0 | 0.0 | 0.00 | 0.09 | 0.09 | 86 | 1012.6 |
| 20260509024330 | 46 | 181 | 0.0 | 0.0 | 0.00 | 0.09 | 0.09 | 85 | 1013.2 |
| 20260509023827 | 46 | 176 | 0.0 | 0.0 | 0.00 | 0.09 | 0.09 | 85 | 1012.8 |
| 20260509023324 | 46 | 208 | 0.0 | 0.0 | 0.00 | 0.09 | 0.09 | 83 | 1012.7 |
| 20260509022821 | 46 | 198 | 0.0 | 0.0 | 0.00 | 0.09 | 0.09 | 82 | 1012.7 |
| 20260509022318 | 46 | 222 | 0.0 | 0.0 | 0.00 | 0.09 | 0.09 | 83 | 1012.8 |
| 20260509021815 | 47 | 214 | 0.0 | 0.0 | 0.00 | 0.09 | 0.09 | 84 | 1012.8 |
| 20260509021312 | 47 | 190 | 0.0 | 0.0 | 0.00 | 0.09 | 0.09 | 83 | 1012.6 |
| 20260509020809 | 47 | 209 | 0.0 | 0.0 | 0.00 | 0.09 | 0.09 | 81 | 1012.8 |
| 20260509020308 | 47 | 217 | 0.0 | 0.0 | 0.00 | 0.09 | 0.09 | 82 | 1012.8 |
| 20260509015805 | 48 | 213 | 0.0 | 0.0 | 0.00 | 0.09 | 0.09 | 81 | 1012.7 |
| 20260509015306 | 48 | 202 | 0.0 | 0.0 | 0.00 | 0.09 | 0.09 | 78 | 1012.6 |
| 20260509014759 | 47 | 202 | 0.0 | 0.0 | 0.00 | 0.09 | 0.09 | 79 | 1012.7 |
| 20260509014256 | 47 | 210 | 0.0 | 0.0 | 0.00 | 0.09 | 0.09 | 81 | 1012.4 |
| 20260509013753 | 48 | 213 | 0.0 | 0.0 | 0.00 | 0.09 | 0.09 | 80 | 1012.6 |
| 20260509013248 | 48 | 201 | 0.0 | 0.0 | 0.00 | 0.09 | 0.09 | 80 | 1012.5 |
| 20260509012745 | 48 | 209 | 0.0 | 0.0 | 0.00 | 0.09 | 0.09 | 77 | 1012.2 |
| 20260509012242 | 49 | 212 | 0.0 | 0.0 | 0.00 | 0.09 | 0.09 | 76 | 1012.2 |
| 20260509011739 | 48 | 196 | 0.0 | 0.0 | 0.00 | 0.09 | 0.09 | 77 | 1012.2 |
| 20260509011237 | 49 | 193 | 0.0 | 0.0 | 0.00 | 0.09 | 0.09 | 78 | 1012.2 |
| 20260509010735 | 49 | 182 | 0.0 | 0.0 | 0.00 | 0.09 | 0.09 | 77 | 1012.1 |
| 20260509010231 | 48 | 200 | 0.0 | 0.0 | 0.00 | 0.09 | 0.09 | 79 | 1012.0 |
| 20260509005728 | 49 | 215 | 0.0 | 0.0 | 0.00 | 0.09 | 0.09 | 79 | 1011.9 |
| 20260509005225 | 49 | 208 | 0.0 | 0.0 | 0.00 | 0.09 | 0.09 | 77 | 1011.7 |
| 20260509004720 | 49 | 210 | 0.0 | 0.0 | 0.00 | 0.09 | 0.09 | 75 | 1011.7 |
| 20260509004218 | 50 | 216 | 0.0 | 0.0 | 0.00 | 0.09 | 0.09 | 77 | 1011.6 |
| 20260509003715 | 50 | 216 | 0.0 | 0.0 | 0.00 | 0.09 | 0.09 | 76 | 1011.5 |
| 20260509003213 | 51 | 215 | 0.0 | 0.0 | 0.00 | 0.09 | 0.09 | 76 | 1011.7 |
| 20260509002710 | 51 | 215 | 0.0 | 0.0 | 0.00 | 0.09 | 0.09 | 74 | 1011.6 |
| 20260509002208 | 52 | 213 | 0.0 | 0.0 | 0.00 | 0.09 | 0.09 | 70 | 1011.5 |
| 20260509001705 | 52 | 221 | 0.0 | 0.0 | 0.00 | 0.09 | 0.09 | 64 | 1011.4 |
| 20260509001200 | 52 | 226 | 0.0 | 0.0 | 0.00 | 0.09 | 0.09 | 66 | 1011.5 |
| 20260509000659 | 53 | 226 | 0.0 | 0.0 | 0.00 | 0.09 | 0.09 | 65 | 1011.2 |
| 20260509000155 | 54 | 217 | 0.0 | 0.0 | 0.00 | 0.09 | 0.09 | 64 | 1011.1 |
| 20260508235653 | 54 | 224 | 0.0 | 0.0 | 0.00 | 0.09 | 0.09 | 59 | 1011.2 |
| 20260508235149 | 54 | 229 | 0.0 | 0.0 | 0.00 | 0.09 | 0.09 | 58 | 1011.1 |
| 20260508234646 | 55 | 228 | 0.0 | 0.0 | 0.00 | 0.09 | 0.09 | 56 | 1011.1 |
| 20260508234142 | 55 | 223 | 0.0 | 0.0 | 0.00 | 0.09 | 0.09 | 55 | 1011.3 |
| 20260508233637 | 55 | 222 | 0.0 | 0.0 | 0.00 | 0.09 | 0.09 | 52 | 1010.9 |
| 20260508233134 | 56 | 229 | 0.0 | 0.0 | 0.00 | 0.09 | 0.09 | 51 | 1010.8 |
| 20260508232631 | 57 | 222 | 0.0 | 0.0 | 0.00 | 0.09 | 0.09 | 48 | 1010.8 |
| 20260508232128 | 57 | 185 | 0.0 | 0.0 | 0.00 | 0.09 | 0.09 | 48 | 1010.8 |
| 20260508231625 | 57 | 220 | 0.0 | 0.0 | 0.00 | 0.09 | 0.09 | 48 | 1010.9 |
| 20260508231122 | 58 | 85 | 4.3 | 5.2 | 0.00 | 0.09 | 0.09 | 45 | 1010.6 |
| 20260508230618 | 59 | 234 | 0.0 | 0.0 | 0.00 | 0.09 | 0.09 | 46 | 1010.6 |
| 20260508230115 | 59 | 245 | 0.0 | 0.0 | 0.00 | 0.09 | 0.09 | 45 | 1010.6 |
| 20260508225613 | 58 | 258 | 0.0 | 0.9 | 0.00 | 0.09 | 0.09 | 46 | 1010.6 |
| 20260508225109 | 58 | 288 | 0.0 | 0.0 | 0.00 | 0.09 | 0.09 | 45 | 1010.5 |
| 20260508224607 | 60 | 235 | 0.0 | 0.0 | 0.00 | 0.09 | 0.09 | 44 | 1010.7 |
| 20260508224104 | 60 | 209 | 0.0 | 0.0 | 0.00 | 0.09 | 0.09 | 42 | 1010.7 |
| 20260508223602 | 60 | 208 | 0.0 | 0.0 | 0.00 | 0.09 | 0.09 | 47 | 1010.8 |
| 20260508223059 | 61 | 318 | 0.0 | 0.0 | 0.00 | 0.09 | 0.09 | 42 | 1010.9 |
| 20260508222556 | 59 | 239 | 0.0 | 0.0 | 0.00 | 0.09 | 0.09 | 46 | 1010.6 |
| 20260508222053 | 57 | 317 | 0.9 | 1.7 | 0.00 | 0.09 | 0.09 | 46 | 1010.9 |
| 20260508221549 | 58 | 330 | 3.5 | 4.3 | 0.00 | 0.09 | 0.09 | 47 | 1010.9 |
| 20260508221045 | 57 | 311 | 4.3 | 5.2 | 0.00 | 0.09 | 0.09 | 46 | 1010.8 |
| 20260508220542 | 58 | 243 | 2.6 | 4.3 | 0.00 | 0.09 | 0.09 | 46 | 1010.6 |
| 20260508220038 | 59 | 353 | 5.2 | 6.1 | 0.00 | 0.09 | 0.09 | 44 | 1010.6 |
| 20260508215535 | 58 | 252 | 0.0 | 0.9 | 0.00 | 0.09 | 0.09 | 45 | 1010.8 |
| 20260508215032 | 59 | 343 | 2.6 | 2.6 | 0.00 | 0.09 | 0.09 | 46 | 1010.6 |
| 20260508214530 | 59 | 292 | 2.6 | 2.6 | 0.00 | 0.09 | 0.09 | 44 | 1010.5 |
| 20260508214026 | 59 | 219 | 0.0 | 0.0 | 0.00 | 0.09 | 0.09 | 48 | 1011.1 |
| 20260508213524 | 59 | 276 | 3.5 | 4.3 | 0.00 | 0.09 | 0.09 | 47 | 1010.7 |
| 20260508213019 | 58 | 348 | 6.1 | 7.0 | 0.00 | 0.09 | 0.09 | 49 | 1010.7 |
| 20260508212515 | 58 | 338 | 4.3 | 5.2 | 0.00 | 0.09 | 0.09 | 48 | 1010.9 |
| 20260508212012 | 57 | 294 | 2.6 | 2.6 | 0.00 | 0.09 | 0.09 | 50 | 1010.9 |
| 20260508211508 | 59 | 252 | 0.0 | 0.0 | 0.00 | 0.09 | 0.09 | 49 | 1011.2 |
| 20260508211004 | 59 | 268 | 3.5 | 6.1 | 0.00 | 0.09 | 0.09 | 48 | 1010.9 |
| 20260508210501 | 59 | 270 | 1.7 | 4.3 | 0.00 | 0.09 | 0.09 | 48 | 1010.9 |
| 20260508205957 | 59 | 334 | 1.7 | 4.3 | 0.00 | 0.09 | 0.09 | 47 | 1011.0 |
| 20260508205454 | 58 | 50 | 1.7 | 2.6 | 0.00 | 0.09 | 0.09 | 49 | 1011.0 |
| 20260508204951 | 58 | 351 | 0.9 | 1.7 | 0.00 | 0.09 | 0.09 | 47 | 1010.9 |
| 20260508204448 | 59 | 260 | 0.0 | 0.0 | 0.00 | 0.09 | 0.09 | 50 | 1011.2 |
| 20260508203943 | 57 | 292 | 2.6 | 4.3 | 0.00 | 0.09 | 0.09 | 48 | 1011.2 |
| 20260508203440 | 59 | 321 | 4.3 | 6.1 | 0.00 | 0.09 | 0.09 | 49 | 1011.4 |
| 20260508202935 | 56 | 254 | 0.0 | 0.0 | 0.00 | 0.09 | 0.09 | 49 | 1011.3 |
| 20260508202433 | 56 | 333 | 3.5 | 4.3 | 0.00 | 0.09 | 0.09 | 51 | 1011.3 |
| 20260508201930 | 57 | 317 | 0.9 | 2.6 | 0.00 | 0.09 | 0.09 | 52 | 1011.3 |
| 20260508201427 | 57 | 3 | 7.0 | 8.7 | 0.00 | 0.09 | 0.09 | 52 | 1011.6 |
| 20260508200924 | 57 | 320 | 6.1 | 7.8 | 0.00 | 0.09 | 0.09 | 51 | 1011.5 |
| 20260508200421 | 57 | 335 | 4.3 | 6.1 | 0.00 | 0.09 | 0.09 | 51 | 1011.4 |
| 20260508195915 | 57 | 316 | 9.6 | 11.3 | 0.00 | 0.09 | 0.09 | 51 | 1011.5 |
| 20260508195413 | 57 | 318 | 2.6 | 5.2 | 0.00 | 0.09 | 0.09 | 54 | 1011.6 |
| 20260508194908 | 58 | 278 | 0.0 | 0.0 | 0.00 | 0.09 | 0.09 | 50 | 1011.7 |
| 20260508194406 | 57 | 253 | 4.3 | 7.0 | 0.00 | 0.09 | 0.09 | 55 | 1011.6 |
| 20260508193903 | 57 | 243 | 0.0 | 0.0 | 0.00 | 0.09 | 0.09 | 52 | 1011.7 |
| 20260508193400 | 54 | 308 | 2.6 | 4.3 | 0.00 | 0.09 | 0.09 | 57 | 1011.9 |
| 20260508192856 | 54 | 330 | 10.4 | 13.9 | 0.00 | 0.09 | 0.09 | 54 | 1012.0 |
| 20260508192353 | 54 | 313 | 4.3 | 7.0 | 0.00 | 0.09 | 0.09 | 55 | 1012.5 |
| 20260508191850 | 54 | 258 | 7.0 | 8.7 | 0.00 | 0.09 | 0.09 | 56 | 1012.3 |
| 20260508191348 | 55 | 345 | 10.4 | 11.3 | 0.00 | 0.09 | 0.09 | 54 | 1012.2 |
| 20260508190845 | 54 | 285 | 5.2 | 7.0 | 0.00 | 0.09 | 0.09 | 54 | 1012.1 |
| 20260508190341 | 55 | 257 | 0.9 | 4.3 | 0.00 | 0.09 | 0.09 | 56 | 1012.2 |
| 20260508185837 | 55 | 315 | 5.2 | 7.0 | 0.00 | 0.09 | 0.09 | 55 | 1012.2 |
| 20260508185335 | 56 | 336 | 7.8 | 8.7 | 0.00 | 0.09 | 0.09 | 53 | 1012.1 |
| 20260508184832 | 56 | 308 | 7.8 | 8.7 | 0.00 | 0.09 | 0.09 | 55 | 1012.2 |
| 20260508184329 | 57 | 1 | 5.2 | 7.8 | 0.00 | 0.09 | 0.09 | 54 | 1012.4 |
| 20260508183826 | 55 | 221 | 0.9 | 0.9 | 0.00 | 0.09 | 0.09 | 57 | 1012.5 |
| 20260508183323 | 54 | 283 | 5.2 | 6.1 | 0.00 | 0.09 | 0.09 | 58 | 1012.6 |
| 20260508182818 | 53 | 227 | 0.9 | 0.9 | 0.00 | 0.09 | 0.09 | 61 | 1012.5 |
| 20260508182316 | 52 | 318 | 3.5 | 4.3 | 0.00 | 0.09 | 0.09 | 60 | 1012.6 |
| 20260508181811 | 53 | 266 | 3.5 | 4.3 | 0.00 | 0.09 | 0.09 | 60 | 1013.0 |
| 20260508181308 | 54 | 291 | 3.5 | 4.3 | 0.00 | 0.09 | 0.09 | 60 | 1012.5 |
| 20260508180805 | 53 | 35 | 2.6 | 2.6 | 0.00 | 0.09 | 0.09 | 61 | 1012.6 |
| 20260508180302 | 54 | 355 | 4.3 | 7.0 | 0.00 | 0.09 | 0.09 | 61 | 1012.5 |
| 20260508175758 | 54 | 6 | 6.1 | 7.8 | 0.00 | 0.09 | 0.09 | 59 | 1012.8 |
| 20260508175255 | 55 | 340 | 7.0 | 8.7 | 0.00 | 0.09 | 0.09 | 60 | 1012.6 |
| 20260508174753 | 55 | 234 | 0.9 | 0.9 | 0.00 | 0.09 | 0.09 | 60 | 1012.7 |
| 20260508174250 | 54 | 221 | 3.5 | 4.3 | 0.00 | 0.09 | 0.09 | 62 | 1012.8 |
| 20260508173746 | 53 | 249 | 1.7 | 2.6 | 0.00 | 0.09 | 0.09 | 64 | 1013.4 |
| 20260508173242 | 53 | 263 | 3.5 | 4.3 | 0.00 | 0.09 | 0.09 | 64 | 1013.1 |
| 20260508172739 | 54 | 173 | 0.0 | 0.0 | 0.00 | 0.09 | 0.09 | 60 | 1013.2 |
| 20260508172236 | 52 | 243 | 0.9 | 1.7 | 0.00 | 0.09 | 0.09 | 65 | 1013.5 |
| 20260508171733 | 53 | 196 | 0.9 | 0.9 | 0.00 | 0.09 | 0.09 | 65 | 1013.3 |
| 20260508171229 | 52 | 198 | 1.7 | 1.7 | 0.00 | 0.09 | 0.09 | 65 | 1013.5 |
| 20260508170726 | 52 | 245 | 0.9 | 0.9 | 0.00 | 0.09 | 0.09 | 66 | 1013.7 |
| 20260508170224 | 53 | 210 | 0.0 | 0.0 | 0.00 | 0.09 | 0.09 | 63 | 1013.4 |
| 20260508165720 | 54 | 227 | 0.0 | 0.0 | 0.00 | 0.09 | 0.09 | 65 | 1013.5 |
| 20260508165218 | 54 | 202 | 0.9 | 0.9 | 0.00 | 0.09 | 0.09 | 66 | 1013.6 |
| 20260508164714 | 52 | 219 | 0.9 | 1.7 | 0.00 | 0.09 | 0.09 | 70 | 1014.0 |
| 20260508164211 | 50 | 216 | 0.0 | 0.0 | 0.00 | 0.09 | 0.09 | 70 | 1014.1 |
| 20260508163709 | 52 | 347 | 0.9 | 2.6 | 0.00 | 0.09 | 0.09 | 67 | 1014.1 |
| 20260508163206 | 50 | 272 | 0.9 | 2.6 | 0.00 | 0.09 | 0.09 | 69 | 1014.0 |
| 20260508162701 | 50 | 229 | 0.0 | 0.0 | 0.00 | 0.09 | 0.09 | 70 | 1013.9 |
| 20260508162159 | 52 | 169 | 1.7 | 1.7 | 0.00 | 0.09 | 0.09 | 69 | 1014.0 |
| 20260508161656 | 50 | 222 | 0.0 | 0.9 | 0.00 | 0.09 | 0.09 | 70 | 1014.2 |
| 20260508161153 | 50 | 233 | 0.0 | 0.0 | 0.00 | 0.09 | 0.09 | 73 | 1014.2 |
| 20260508160651 | 49 | 260 | 1.7 | 1.7 | 0.00 | 0.09 | 0.09 | 75 | 1014.4 |
| 20260508160149 | 48 | 228 | 0.9 | 0.9 | 0.00 | 0.09 | 0.09 | 75 | 1014.5 |
| 20260508155645 | 48 | 63 | 2.6 | 2.6 | 0.00 | 0.09 | 0.09 | 75 | 1014.6 |
| 20260508155142 | 48 | 241 | 0.0 | 0.9 | 0.00 | 0.09 | 0.09 | 77 | 1014.8 |
| 20260508154639 | 48 | 270 | 1.7 | 2.6 | 0.00 | 0.09 | 0.09 | 77 | 1014.5 |
| 20260508154136 | 47 | 172 | 0.9 | 1.7 | 0.00 | 0.09 | 0.09 | 81 | 1014.6 |
| 20260508153633 | 46 | 240 | 2.6 | 2.6 | 0.00 | 0.09 | 0.09 | 81 | 1014.4 |
| 20260508153130 | 45 | 227 | 0.9 | 0.9 | 0.00 | 0.09 | 0.09 | 84 | 1014.5 |
| 20260508152626 | 44 | 275 | 0.9 | 1.7 | 0.00 | 0.09 | 0.09 | 84 | 1014.5 |
| 20260508152121 | 44 | 219 | 0.0 | 0.0 | 0.00 | 0.09 | 0.09 | 87 | 1014.6 |
| 20260508151619 | 44 | 226 | 0.0 | 0.9 | 0.00 | 0.09 | 0.09 | 87 | 1014.4 |
| 20260508151116 | 44 | 205 | 0.0 | 0.9 | 0.00 | 0.09 | 0.09 | 91 | 1014.3 |
| 20260508150613 | 43 | 204 | 0.0 | 0.0 | 0.00 | 0.09 | 0.09 | 93 | 1014.2 |
| 20260508150109 | 41 | 219 | 0.0 | 0.0 | 0.00 | 0.09 | 0.09 | 93 | 1014.3 |
| 20260508145605 | 42 | 227 | 0.0 | 0.0 | 0.00 | 0.09 | 0.09 | 95 | 1014.2 |
| 20260508145102 | 40 | 239 | 0.9 | 0.9 | 0.00 | 0.09 | 0.09 | 95 | 1014.4 |
| 20260508144600 | 40 | 236 | 0.9 | 0.9 | 0.00 | 0.09 | 0.09 | 95 | 1014.4 |
| 20260508144057 | 40 | 219 | 0.0 | 0.0 | 0.00 | 0.09 | 0.09 | 96 | 1014.3 |
| 20260508143554 | 39 | 230 | 0.9 | 0.9 | 0.00 | 0.09 | 0.09 | 96 | 1014.2 |
| 20260508143050 | 39 | 262 | 2.6 | 2.6 | 0.00 | 0.09 | 0.09 | 96 | 1014.4 |
| 20260508142547 | 39 | 323 | 3.5 | 4.3 | 0.00 | 0.09 | 0.09 | 96 | 1014.6 |
| 20260508142044 | 39 | 245 | 2.6 | 2.6 | 0.00 | 0.09 | 0.09 | 96 | 1014.5 |
| 20260508141540 | 39 | 249 | 1.7 | 1.7 | 0.00 | 0.09 | 0.09 | 96 | 1014.3 |
| 20260508141038 | 39 | 276 | 2.6 | 2.6 | 0.00 | 0.09 | 0.09 | 96 | 1014.4 |
| 20260508140535 | 39 | 239 | 1.7 | 1.7 | 0.00 | 0.09 | 0.09 | 96 | 1014.5 |
| 20260508140031 | 39 | 256 | 1.7 | 1.7 | 0.00 | 0.09 | 0.09 | 96 | 1014.4 |
| 20260508135527 | 39 | 242 | 1.7 | 1.7 | 0.00 | 0.09 | 0.09 | 96 | 1014.1 |
| 20260508135024 | 39 | 243 | 0.9 | 0.9 | 0.00 | 0.09 | 0.09 | 96 | 1014.1 |
| 20260508134521 | 39 | 309 | 2.6 | 2.6 | 0.00 | 0.09 | 0.09 | 96 | 1014.1 |
| 20260508134018 | 39 | 249 | 2.6 | 2.6 | 0.00 | 0.09 | 0.09 | 96 | 1014.4 |
| 20260508133514 | 39 | 341 | 3.5 | 4.3 | 0.00 | 0.09 | 0.09 | 95 | 1014.0 |
| 20260508133012 | 39 | 249 | 2.6 | 2.6 | 0.00 | 0.09 | 0.09 | 95 | 1014.2 |
| 20260508132510 | 39 | 255 | 0.0 | 0.0 | 0.00 | 0.09 | 0.09 | 95 | 1014.1 |
| 20260508132006 | 39 | 224 | 0.0 | 0.0 | 0.00 | 0.09 | 0.09 | 95 | 1014.1 |
| 20260508131501 | 39 | 205 | 0.0 | 0.0 | 0.00 | 0.09 | 0.09 | 95 | 1013.6 |
| 20260508130958 | 39 | 219 | 0.0 | 0.0 | 0.00 | 0.09 | 0.09 | 95 | 1013.9 |
| 20260508130455 | 39 | 228 | 0.0 | 0.0 | 0.00 | 0.09 | 0.09 | 95 | 1013.7 |
| 20260508125950 | 39 | 207 | 0.0 | 0.0 | 0.00 | 0.09 | 0.09 | 95 | 1013.9 |
| 20260508125447 | 39 | 219 | 0.0 | 0.0 | 0.00 | 0.09 | 0.09 | 96 | 1013.8 |
| 20260508124945 | 39 | 224 | 0.0 | 0.0 | 0.00 | 0.09 | 0.09 | 95 | 1013.6 |
| 20260508124443 | 38 | 198 | 0.0 | 0.0 | 0.00 | 0.09 | 0.09 | 95 | 1013.9 |
| 20260508123940 | 38 | 206 | 0.0 | 0.0 | 0.05 | 0.09 | 0.09 | 96 | 1013.8 |
| 20260508123439 | 38 | 223 | 0.0 | 0.0 | 0.05 | 0.09 | 0.09 | 95 | 1013.9 |
| 20260508122934 | 37 | 216 | 0.0 | 0.0 | 0.07 | 0.08 | 0.08 | 95 | 1013.6 |
| 20260508122431 | 38 | 216 | 0.0 | 0.0 | 0.14 | 0.08 | 0.08 | 95 | 1013.8 |
| 20260508121929 | 38 | 218 | 0.0 | 0.0 | 0.19 | 0.07 | 0.07 | 95 | 1013.8 |
| 20260508121427 | 38 | 219 | 0.0 | 0.0 | 0.17 | 0.06 | 0.06 | 95 | 1013.7 |
| 20260508120924 | 38 | 233 | 0.0 | 0.0 | 0.12 | 0.04 | 0.04 | 94 | 1013.8 |
| 20260508120422 | 38 | 222 | 0.0 | 0.0 | 0.12 | 0.03 | 0.03 | 94 | 1013.7 |
| 20260508115919 | 38 | 252 | 0.0 | 0.0 | 0.05 | 0.02 | 0.02 | 94 | 1013.6 |
| 20260508115418 | 38 | 247 | 0.0 | 0.0 | 0.00 | 0.01 | 0.01 | 93 | 1013.5 |
| 20260508114913 | 38 | 231 | 0.0 | 0.0 | 0.07 | 0.01 | 0.01 | 93 | 1013.1 |
| 20260508114410 | 38 | 224 | 0.0 | 0.0 | 0.07 | 0.01 | 0.01 | 92 | 1013.2 |
| 20260508113907 | 38 | 215 | 0.0 | 0.0 | 0.00 | 0.00 | 0.00 | 92 | 1013.2 |
| 20260508113405 | 38 | 227 | 0.0 | 0.0 | 0.00 | 0.00 | 0.00 | 92 | 1013.3 |
| 20260508112902 | 38 | 223 | 0.0 | 0.0 | 0.00 | 0.00 | 0.00 | 92 | 1013.2 |
| 20260508112358 | 38 | 220 | 0.0 | 0.0 | 0.00 | 0.00 | 0.00 | 92 | 1013.1 |
| 20260508111855 | 38 | 212 | 0.0 | 0.0 | 0.00 | 0.00 | 0.00 | 92 | 1013.0 |
| 20260508111352 | 38 | 220 | 0.0 | 0.0 | 0.00 | 0.00 | 0.00 | 93 | 1013.1 |
| 20260508110849 | 37 | 215 | 0.0 | 0.0 | 0.00 | 0.00 | 0.00 | 93 | 1012.8 |
| 20260508110347 | 37 | 223 | 0.0 | 0.0 | 0.00 | 0.00 | 0.00 | 93 | 1013.0 |
| 20260508105846 | 37 | 222 | 0.0 | 0.0 | 0.00 | 0.00 | 0.00 | 94 | 1013.1 |
| 20260508105343 | 37 | 196 | 0.0 | 0.0 | 0.00 | 0.00 | 0.00 | 94 | 1012.7 |
| 20260508104840 | 37 | 200 | 0.0 | 0.0 | 0.00 | 0.00 | 0.00 | 94 | 1012.6 |
| 20260508104337 | 37 | 212 | 0.0 | 0.9 | 0.00 | 0.00 | 0.00 | 95 | 1012.7 |
| 20260508103835 | 36 | 206 | 0.9 | 0.9 | 0.00 | 0.00 | 0.00 | 95 | 1012.5 |
| 20260508103331 | 36 | 212 | 0.0 | 0.0 | 0.00 | 0.00 | 0.00 | 95 | 1012.5 |
| 20260508102829 | 36 | 163 | 0.0 | 0.0 | 0.00 | 0.00 | 0.00 | 95 | 1012.6 |
| 20260508102327 | 36 | 197 | 0.0 | 0.0 | 0.00 | 0.00 | 0.00 | 94 | 1012.7 |
| 20260508101824 | 36 | 209 | 0.0 | 0.0 | 0.00 | 0.00 | 0.00 | 94 | 1012.6 |
| 20260508101321 | 36 | 196 | 0.0 | 0.0 | 0.00 | 0.00 | 0.00 | 94 | 1012.7 |
| 20260508100819 | 36 | 208 | 0.0 | 0.0 | 0.00 | 0.00 | 0.00 | 94 | 1013.0 |
| 20260508100317 | 37 | 216 | 0.9 | 0.9 | 0.00 | 0.00 | 0.00 | 94 | 1012.8 |
| 20260508095812 | 37 | 182 | 0.0 | 0.0 | 0.00 | 0.00 | 0.00 | 94 | 1013.1 |
| 20260508095310 | 37 | 186 | 0.0 | 0.0 | 0.00 | 0.00 | 0.00 | 94 | 1013.0 |
| 20260508094807 | 37 | 214 | 0.0 | 0.0 | 0.00 | 0.00 | 0.00 | 94 | 1013.3 |
| 20260508094304 | 37 | 188 | 0.0 | 0.0 | 0.00 | 0.00 | 0.00 | 95 | 1013.0 |
| 20260508093801 | 36 | 207 | 0.0 | 0.0 | 0.00 | 0.00 | 0.00 | 95 | 1013.0 |
| 20260508093259 | 36 | 219 | 0.0 | 0.0 | 0.00 | 0.00 | 0.00 | 95 | 1013.1 |
| 20260508092755 | 36 | 216 | 0.0 | 0.0 | 0.00 | 0.00 | 0.00 | 94 | 1012.8 |
| 20260508092254 | 36 | 203 | 0.0 | 0.0 | 0.00 | 0.00 | 0.00 | 94 | 1013.1 |
| 20260508091751 | 36 | 144 | 0.0 | 0.0 | 0.00 | 0.00 | 0.00 | 94 | 1013.0 |
| 20260508091248 | 37 | 181 | 3.5 | 4.3 | 0.00 | 0.00 | 0.00 | 94 | 1012.7 |
| 20260508090746 | 37 | 182 | 2.6 | 2.6 | 0.00 | 0.00 | 0.00 | 93 | 1012.8 |
| 20260508090243 | 37 | 197 | 0.0 | 0.0 | 0.00 | 0.00 | 0.00 | 92 | 1013.1 |
| 20260508085739 | 37 | 223 | 0.0 | 0.0 | 0.00 | 0.00 | 0.00 | 92 | 1013.3 |
| 20260508085236 | 37 | 212 | 0.0 | 0.9 | 0.00 | 0.00 | 0.00 | 92 | 1013.1 |
| 20260508084732 | 37 | 164 | 1.7 | 1.7 | 0.00 | 0.00 | 0.00 | 91 | 1013.3 |
| 20260508084230 | 37 | 195 | 0.0 | 0.0 | 0.00 | 0.00 | 0.00 | 90 | 1013.2 |
| 20260508083728 | 37 | 227 | 0.0 | 0.0 | 0.00 | 0.00 | 0.00 | 90 | 1013.2 |
| 20260508083225 | 37 | 207 | 0.0 | 0.0 | 0.00 | 0.00 | 0.00 | 90 | 1013.1 |
| 20260508082719 | 36 | 167 | 0.0 | 0.0 | 0.00 | 0.00 | 0.00 | 91 | 1013.3 |
| 20260508082217 | 36 | 206 | 0.0 | 0.0 | 0.00 | 0.00 | 0.00 | 90 | 1013.3 |
| 20260508081715 | 36 | 228 | 0.0 | 0.0 | 0.00 | 0.00 | 0.00 | 90 | 1013.3 |
| 20260508081211 | 36 | 239 | 0.0 | 0.0 | 0.00 | 0.00 | 0.00 | 90 | 1012.8 |
| 20260508080708 | 36 | 217 | 0.0 | 0.0 | 0.00 | 0.00 | 0.00 | 89 | 1012.8 |
| 20260508080206 | 37 | 216 | 0.0 | 0.0 | 0.00 | 0.00 | 0.00 | 89 | 1012.8 |
| 20260508075703 | 37 | 221 | 0.0 | 0.0 | 0.00 | 0.00 | 0.00 | 89 | 1013.1 |
| 20260508075200 | 37 | 220 | 0.0 | 0.0 | 0.00 | 0.00 | 0.00 | 89 | 1013.1 |
| 20260508074657 | 37 | 211 | 0.0 | 0.0 | 0.00 | 0.00 | 0.00 | 89 | 1013.2 |
| 20260508074154 | 37 | 205 | 0.0 | 0.9 | 0.00 | 0.00 | 0.00 | 89 | 1013.0 |
| 20260508073651 | 37 | 221 | 0.0 | 0.0 | 0.00 | 0.00 | 0.00 | 89 | 1013.0 |
| 20260508073149 | 37 | 228 | 0.0 | 0.0 | 0.00 | 0.00 | 0.00 | 89 | 1013.0 |
| 20260508072644 | 37 | 223 | 0.0 | 0.0 | 0.00 | 0.00 | 0.00 | 89 | 1013.1 |
| 20260508072142 | 37 | 221 | 0.0 | 0.0 | 0.00 | 0.00 | 0.00 | 89 | 1012.8 |
| 20260508071639 | 38 | 204 | 0.0 | 0.0 | 0.00 | 0.00 | 0.00 | 89 | 1013.0 |
| 20260508071137 | 37 | 220 | 0.0 | 0.0 | 0.00 | 0.00 | 0.00 | 89 | 1013.2 |
| 20260508070635 | 37 | 224 | 0.0 | 0.0 | 0.00 | 0.00 | 0.00 | 88 | 1013.1 |
| 20260508070133 | 38 | 201 | 0.0 | 0.0 | 0.00 | 0.00 | 0.00 | 88 | 1013.1 |
| 20260508065630 | 38 | 215 | 0.0 | 0.0 | 0.00 | 0.00 | 0.00 | 87 | 1013.1 |
| 20260508065128 | 38 | 233 | 0.0 | 0.0 | 0.00 | 0.00 | 0.00 | 87 | 1013.2 |
| 20260508064625 | 38 | 231 | 0.0 | 0.0 | 0.00 | 0.00 | 0.00 | 87 | 1013.1 |
| 20260508064123 | 39 | 191 | 0.9 | 0.9 | 0.00 | 0.00 | 0.00 | 85 | 1013.3 |
| 20260508063620 | 40 | 223 | 0.9 | 0.9 | 0.00 | 0.00 | 0.00 | 84 | 1013.0 |
| 20260508062616 | 38 | 213 | 0.0 | 0.0 | 0.00 | 0.00 | 0.00 | 88 | 1012.8 |
| 20260508062112 | 38 | 208 | 0.0 | 0.0 | 0.00 | 0.00 | 0.00 | 87 | 1013.1 |
| 20260508061610 | 38 | 218 | 0.0 | 0.0 | 0.00 | 0.00 | 0.00 | 87 | 1013.1 |
| 20260508061107 | 39 | 214 | 0.9 | 0.9 | 0.00 | 0.00 | 0.00 | 87 | 1013.0 |
| 20260508060603 | 39 | 222 | 0.0 | 0.0 | 0.00 | 0.00 | 0.00 | 84 | 1013.2 |
| 20260508060101 | 40 | 233 | 0.9 | 0.9 | 0.00 | 0.00 | 0.00 | 83 | 1013.1 |
| 20260508055556 | 41 | 229 | 0.0 | 0.0 | 0.00 | 0.00 | 0.00 | 81 | 1013.2 |
| 20260508055053 | 41 | 260 | 1.7 | 1.7 | 0.00 | 0.00 | 0.00 | 81 | 1013.3 |
| 20260508054550 | 41 | 247 | 2.6 | 2.6 | 0.00 | 0.00 | 0.00 | 81 | 1013.3 |
| 20260508054047 | 41 | 234 | 0.9 | 0.9 | 0.00 | 0.00 | 0.00 | 81 | 1013.3 |
| 20260508053544 | 41 | 261 | 0.9 | 1.7 | 0.00 | 0.00 | 0.00 | 81 | 1013.2 |
| 20260508053042 | 40 | 246 | 1.7 | 1.7 | 0.00 | 0.00 | 0.00 | 82 | 1013.0 |
| 20260508052539 | 41 | 233 | 3.5 | 4.3 | 0.00 | 0.00 | 0.00 | 81 | 1013.3 |
| 20260508052036 | 41 | 235 | 0.9 | 0.9 | 0.00 | 0.00 | 0.00 | 80 | 1013.3 |
| 20260508051532 | 41 | 254 | 1.7 | 1.7 | 0.00 | 0.00 | 0.00 | 80 | 1013.3 |
| 20260508051027 | 42 | 259 | 2.6 | 2.6 | 0.00 | 0.00 | 0.00 | 79 | 1013.3 |
| 20260508050524 | 42 | 242 | 1.7 | 1.7 | 0.00 | 0.00 | 0.00 | 78 | 1013.4 |
| 20260508050021 | 42 | 293 | 2.6 | 2.6 | 0.00 | 0.00 | 0.00 | 77 | 1013.3 |
| 20260508045517 | 43 | 278 | 2.6 | 2.6 | 0.00 | 0.00 | 0.00 | 76 | 1013.3 |
| 20260508045015 | 43 | 293 | 2.6 | 2.6 | 0.00 | 0.00 | 0.00 | 75 | 1013.2 |
| 20260508044512 | 43 | 310 | 2.6 | 2.6 | 0.00 | 0.00 | 0.00 | 75 | 1013.4 |
| 20260508044008 | 44 | 321 | 2.6 | 4.3 | 0.00 | 0.00 | 0.00 | 74 | 1013.1 |